createdAt,value
2019-03-28T00:00:01.019Z,6.7
2019-03-28T00:00:51.893Z,6.7
2019-03-28T00:01:42.798Z,6.6
2019-03-28T00:02:33.673Z,6.6
2019-03-28T00:03:24.540Z,6.6
2019-03-28T00:04:15.410Z,6.6
2019-03-28T00:05:06.290Z,6.6
2019-03-28T00:05:57.177Z,6.6
2019-03-28T00:06:48.111Z,6.6
2019-03-28T00:07:39.086Z,6.6
2019-03-28T00:08:29.964Z,6.6
2019-03-28T00:09:20.837Z,6.6
2019-03-28T00:10:11.708Z,6.6
2019-03-28T00:11:02.588Z,6.6
2019-03-28T00:11:53.498Z,6.5
2019-03-28T00:12:44.360Z,6.4
2019-03-28T00:13:35.240Z,6.4
2019-03-28T00:14:26.109Z,6.4
2019-03-28T00:15:16.982Z,6.4
2019-03-28T00:16:07.864Z,6.4
2019-03-28T00:16:58.760Z,6.4
2019-03-28T00:17:49.637Z,6.4
2019-03-28T00:18:40.510Z,6.4
2019-03-28T00:19:31.380Z,6.3
2019-03-28T00:20:22.266Z,6.4
2019-03-28T00:21:13.160Z,6.4
2019-03-28T00:22:05.631Z,6.4
2019-03-28T00:22:56.637Z,6.4
2019-03-28T00:23:47.510Z,6.5
2019-03-28T00:24:38.382Z,6.5
2019-03-28T00:25:29.252Z,6.5
2019-03-28T00:26:29.787Z,6.6
2019-03-28T00:27:15.964Z,6.6
2019-03-28T00:28:06.830Z,6.6
2019-03-28T00:28:57.709Z,6.6
2019-03-28T00:29:48.578Z,6.6
2019-03-28T00:30:39.448Z,6.6
2019-03-28T00:31:30.310Z,6.6
2019-03-28T00:32:21.215Z,6.6
2019-03-28T00:33:12.084Z,6.7
2019-03-28T00:34:02.960Z,6.7
2019-03-28T00:34:53.827Z,6.7
2019-03-28T00:35:44.697Z,6.7
2019-03-28T00:36:35.562Z,6.7
2019-03-28T00:37:26.461Z,6.7
2019-03-28T00:38:17.327Z,6.7
2019-03-28T00:39:08.197Z,6.7
2019-03-28T00:39:59.070Z,6.7
2019-03-28T00:40:49.945Z,6.7
2019-03-28T00:41:40.814Z,6.6
2019-03-28T00:42:31.707Z,6.6
2019-03-28T00:43:22.610Z,6.6
2019-03-28T00:44:13.483Z,6.7
2019-03-28T00:45:04.355Z,6.6
2019-03-28T00:45:55.229Z,6.7
2019-03-28T00:46:46.252Z,6.6
2019-03-28T00:47:37.264Z,6.6
2019-03-28T00:48:28.130Z,6.6
2019-03-28T00:49:19.013Z,6.6
2019-03-28T00:50:09.882Z,6.6
2019-03-28T00:51:00.757Z,6.6
2019-03-28T00:51:51.634Z,6.6
2019-03-28T00:52:42.531Z,6.6
2019-03-28T00:53:33.398Z,6.6
2019-03-28T00:54:24.263Z,6.6
2019-03-28T00:55:15.133Z,6.6
2019-03-28T00:56:06.001Z,6.6
2019-03-28T00:56:56.875Z,6.6
2019-03-28T00:57:47.779Z,6.6
2019-03-28T00:58:38.656Z,6.6
2019-03-28T00:59:29.538Z,6.6
2019-03-28T01:00:20.419Z,6.6
2019-03-28T01:01:11.283Z,6.6
2019-03-28T01:02:02.151Z,6.6
2019-03-28T01:02:53.051Z,6.6
2019-03-28T01:03:43.929Z,6.6
2019-03-28T01:04:34.800Z,6.6
2019-03-28T01:05:25.676Z,6.6
2019-03-28T01:06:16.543Z,6.6
2019-03-28T01:07:07.410Z,6.6
2019-03-28T01:08:03.319Z,6.6
2019-03-28T01:08:54.188Z,6.6
2019-03-28T01:09:45.064Z,6.6
2019-03-28T01:10:35.937Z,6.6
2019-03-28T01:11:26.812Z,6.6
2019-03-28T01:12:17.687Z,6.6
2019-03-28T01:13:08.585Z,6.6
2019-03-28T01:13:59.478Z,6.6
2019-03-28T01:14:50.352Z,6.6
2019-03-28T01:15:41.220Z,6.6
2019-03-28T01:16:32.087Z,6.6
2019-03-28T01:17:22.957Z,6.6
2019-03-28T01:18:13.937Z,6.6
2019-03-28T01:19:04.816Z,6.6
2019-03-28T01:19:55.685Z,6.6
2019-03-28T01:20:46.561Z,6.6
2019-03-28T01:21:37.433Z,6.6
2019-03-28T01:22:28.306Z,6.6
2019-03-28T01:23:19.207Z,6.6
2019-03-28T01:24:10.078Z,6.6
2019-03-28T01:25:01.748Z,6.6
2019-03-28T01:25:53.187Z,6.6
2019-03-28T01:26:51.818Z,6.6
2019-03-28T01:27:39.948Z,6.6
2019-03-28T01:28:30.846Z,6.6
2019-03-28T01:29:21.721Z,6.6
2019-03-28T01:30:12.589Z,6.6
2019-03-28T01:31:03.464Z,6.6
2019-03-28T01:31:54.335Z,6.6
2019-03-28T01:32:45.207Z,6.6
2019-03-28T01:33:36.116Z,6.6
2019-03-28T01:34:26.981Z,6.6
2019-03-28T01:35:17.854Z,6.6
2019-03-28T01:36:08.718Z,6.6
2019-03-28T01:36:59.593Z,6.6
2019-03-28T01:37:50.457Z,6.6
2019-03-28T01:38:41.324Z,6.6
2019-03-28T01:39:32.224Z,6.6
2019-03-28T01:40:23.100Z,6.6
2019-03-28T01:41:13.970Z,6.6
2019-03-28T01:42:04.845Z,6.6
2019-03-28T01:42:56.102Z,6.6
2019-03-28T01:43:47.057Z,6.6
2019-03-28T01:44:37.925Z,6.6
2019-03-28T01:45:28.793Z,6.6
2019-03-28T01:46:19.663Z,6.6
2019-03-28T01:47:10.534Z,6.6
2019-03-28T01:48:01.401Z,6.6
2019-03-28T01:48:52.270Z,6.6
2019-03-28T01:49:43.165Z,6.6
2019-03-28T01:50:34.043Z,6.6
2019-03-28T01:51:24.914Z,6.6
2019-03-28T01:52:15.783Z,6.6
2019-03-28T01:53:06.670Z,6.6
2019-03-28T01:53:57.549Z,6.6
2019-03-28T01:54:48.451Z,6.6
2019-03-28T01:55:39.312Z,6.6
2019-03-28T01:56:30.178Z,6.6
2019-03-28T01:57:21.048Z,6.6
2019-03-28T01:58:11.925Z,6.6
2019-03-28T01:59:02.865Z,6.6
2019-03-28T01:59:53.731Z,6.6
2019-03-28T02:00:44.602Z,6.6
2019-03-28T02:01:35.472Z,6.6
2019-03-28T02:02:26.340Z,6.6
2019-03-28T02:03:17.206Z,6.6
2019-03-28T02:04:08.078Z,6.6
2019-03-28T02:04:58.975Z,6.6
2019-03-28T02:05:49.843Z,6.6
2019-03-28T02:06:40.712Z,6.6
2019-03-28T02:07:31.588Z,6.6
2019-03-28T02:08:24.717Z,6.6
2019-03-28T02:09:15.835Z,6.6
2019-03-28T02:10:06.737Z,6.6
2019-03-28T02:10:57.605Z,6.6
2019-03-28T02:11:48.476Z,6.6
2019-03-28T02:12:39.365Z,6.6
2019-03-28T02:13:30.239Z,6.6
2019-03-28T02:14:21.105Z,6.6
2019-03-28T02:15:11.997Z,6.6
2019-03-28T02:16:02.867Z,6.6
2019-03-28T02:16:53.736Z,6.6
2019-03-28T02:17:44.610Z,6.6
2019-03-28T02:18:35.476Z,6.6
2019-03-28T02:19:27.373Z,6.6
2019-03-28T02:20:18.272Z,6.6
2019-03-28T02:21:09.657Z,6.6
2019-03-28T02:22:00.591Z,6.6
2019-03-28T02:22:51.467Z,6.6
2019-03-28T02:23:42.335Z,6.6
2019-03-28T02:24:33.203Z,6.6
2019-03-28T02:25:24.105Z,6.6
2019-03-28T02:26:14.975Z,6.6
2019-03-28T02:27:05.848Z,6.6
2019-03-28T02:27:56.718Z,6.6
2019-03-28T02:28:47.588Z,6.6
2019-03-28T02:29:38.458Z,6.6
2019-03-28T02:30:29.364Z,6.6
2019-03-28T02:31:20.238Z,6.6
2019-03-28T02:32:11.120Z,6.6
2019-03-28T02:33:01.999Z,6.6
2019-03-28T02:33:52.874Z,6.6
2019-03-28T02:34:43.991Z,6.6
2019-03-28T02:35:34.890Z,6.6
2019-03-28T02:36:25.766Z,6.6
2019-03-28T02:37:16.644Z,6.6
2019-03-28T02:38:07.526Z,6.6
2019-03-28T02:38:58.651Z,6.6
2019-03-28T02:39:50.653Z,6.6
2019-03-28T02:40:42.555Z,6.5
2019-03-28T02:41:34.843Z,6.5
2019-03-28T02:42:25.882Z,6.6
2019-03-28T02:43:16.755Z,6.5
2019-03-28T02:44:07.623Z,6.5
2019-03-28T02:44:58.517Z,6.5
2019-03-28T02:45:49.418Z,6.6
2019-03-28T02:46:40.301Z,6.6
2019-03-28T02:47:31.171Z,6.6
2019-03-28T02:48:22.062Z,6.6
2019-03-28T02:49:12.947Z,6.6
2019-03-28T02:50:03.852Z,6.6
2019-03-28T02:50:54.733Z,6.6
2019-03-28T02:51:45.603Z,6.6
2019-03-28T02:52:36.477Z,6.6
2019-03-28T02:53:27.368Z,6.6
2019-03-28T02:54:18.243Z,6.6
2019-03-28T02:55:09.139Z,6.6
2019-03-28T02:56:00.018Z,6.6
2019-03-28T02:56:50.897Z,6.6
2019-03-28T02:57:43.638Z,6.6
2019-03-28T02:58:34.728Z,6.6
2019-03-28T02:59:25.611Z,6.6
2019-03-28T03:00:16.523Z,6.6
2019-03-28T03:01:07.643Z,6.6
2019-03-28T03:01:58.534Z,6.6
2019-03-28T03:02:49.412Z,6.6
2019-03-28T03:03:40.286Z,6.6
2019-03-28T03:04:31.167Z,6.6
2019-03-28T03:05:22.066Z,6.6
2019-03-28T03:06:12.945Z,6.6
2019-03-28T03:07:03.820Z,6.6
2019-03-28T03:07:54.692Z,6.6
2019-03-28T03:08:45.566Z,6.6
2019-03-28T03:09:36.445Z,6.6
2019-03-28T03:10:27.340Z,6.6
2019-03-28T03:11:18.218Z,6.6
2019-03-28T03:12:09.106Z,6.6
2019-03-28T03:12:59.972Z,6.6
2019-03-28T03:13:50.839Z,6.6
2019-03-28T03:14:41.705Z,6.6
2019-03-28T03:15:32.603Z,6.6
2019-03-28T03:16:23.474Z,6.6
2019-03-28T03:17:14.349Z,6.6
2019-03-28T03:18:05.219Z,6.6
2019-03-28T03:18:56.091Z,6.6
2019-03-28T03:19:46.958Z,6.6
2019-03-28T03:20:37.854Z,6.6
2019-03-28T03:21:28.721Z,6.6
2019-03-28T03:22:19.595Z,6.6
2019-03-28T03:23:10.462Z,6.6
2019-03-28T03:24:01.331Z,6.6
2019-03-28T03:24:52.198Z,6.6
2019-03-28T03:25:43.092Z,6.6
2019-03-28T03:26:33.958Z,6.6
2019-03-28T03:27:24.837Z,6.6
2019-03-28T03:28:15.702Z,6.6
2019-03-28T03:29:06.570Z,6.6
2019-03-28T03:29:57.439Z,6.6
2019-03-28T03:30:48.346Z,6.6
2019-03-28T03:31:39.214Z,6.6
2019-03-28T03:32:30.112Z,6.6
2019-03-28T03:33:20.988Z,6.6
2019-03-28T03:34:11.858Z,6.6
2019-03-28T03:35:02.737Z,6.6
2019-03-28T03:35:53.669Z,6.6
2019-03-28T03:36:44.541Z,6.6
2019-03-28T03:37:35.411Z,6.6
2019-03-28T03:38:26.281Z,6.6
2019-03-28T03:39:17.158Z,6.6
2019-03-28T03:40:08.057Z,6.6
2019-03-28T03:40:58.953Z,6.6
2019-03-28T03:41:49.819Z,6.6
2019-03-28T03:42:40.689Z,6.6
2019-03-28T03:43:31.552Z,6.6
2019-03-28T03:44:22.415Z,6.6
2019-03-28T03:45:13.294Z,6.6
2019-03-28T03:46:04.194Z,6.6
2019-03-28T03:46:55.060Z,6.6
2019-03-28T03:47:46.047Z,6.6
2019-03-28T03:48:36.924Z,6.6
2019-03-28T03:49:27.797Z,6.6
2019-03-28T03:50:18.667Z,6.6
2019-03-28T03:51:09.569Z,6.6
2019-03-28T03:52:00.444Z,6.6
2019-03-28T03:52:51.324Z,6.6
2019-03-28T03:53:42.190Z,6.6
2019-03-28T03:54:33.061Z,6.6
2019-03-28T03:55:23.930Z,6.6
2019-03-28T03:56:14.825Z,6.6
2019-03-28T03:57:05.689Z,6.6
2019-03-28T03:58:13.634Z,6.6
2019-03-28T03:58:52.367Z,6.6
2019-03-28T03:59:43.233Z,6.6
2019-03-28T04:00:34.106Z,6.6
2019-03-28T04:01:24.998Z,6.6
2019-03-28T04:02:15.863Z,6.6
2019-03-28T04:03:06.735Z,6.6
2019-03-28T04:03:57.604Z,6.6
2019-03-28T04:04:48.480Z,6.6
2019-03-28T04:05:39.367Z,6.6
2019-03-28T04:06:30.269Z,6.6
2019-03-28T04:07:21.139Z,6.6
2019-03-28T04:08:12.024Z,6.6
2019-03-28T04:09:02.887Z,6.6
2019-03-28T04:09:53.768Z,6.6
2019-03-28T04:10:44.660Z,6.6
2019-03-28T04:11:35.521Z,6.6
2019-03-28T04:12:26.386Z,6.6
2019-03-28T04:13:17.267Z,6.6
2019-03-28T04:14:08.139Z,6.6
2019-03-28T04:14:59.009Z,6.6
2019-03-28T04:15:49.910Z,6.6
2019-03-28T04:16:40.773Z,6.6
2019-03-28T04:17:31.638Z,6.6
2019-03-28T04:18:22.677Z,6.6
2019-03-28T04:19:13.562Z,6.6
2019-03-28T04:20:04.424Z,6.6
2019-03-28T04:20:55.324Z,6.6
2019-03-28T04:21:46.186Z,6.6
2019-03-28T04:22:37.467Z,6.6
2019-03-28T04:23:28.377Z,6.6
2019-03-28T04:24:19.247Z,6.6
2019-03-28T04:25:10.115Z,6.6
2019-03-28T04:26:01.006Z,6.6
2019-03-28T04:26:51.872Z,6.6
2019-03-28T04:27:42.736Z,6.6
2019-03-28T04:28:33.602Z,6.6
2019-03-28T04:29:24.466Z,6.6
2019-03-28T04:30:15.331Z,6.6
2019-03-28T04:31:06.221Z,6.6
2019-03-28T04:31:57.091Z,6.6
2019-03-28T04:32:47.960Z,6.6
2019-03-28T04:33:38.839Z,6.6
2019-03-28T04:34:29.708Z,6.6
2019-03-28T04:35:20.574Z,6.6
2019-03-28T04:36:11.477Z,6.6
2019-03-28T04:37:02.344Z,6.6
2019-03-28T04:37:53.211Z,6.6
2019-03-28T04:38:44.090Z,6.6
2019-03-28T04:39:34.957Z,6.6
2019-03-28T04:40:25.828Z,6.6
2019-03-28T04:41:16.730Z,6.6
2019-03-28T04:42:07.597Z,6.6
2019-03-28T04:42:58.466Z,6.6
2019-03-28T04:43:49.334Z,6.6
2019-03-28T04:44:40.195Z,6.6
2019-03-28T04:45:36.059Z,6.6
2019-03-28T04:46:26.949Z,6.6
2019-03-28T04:47:17.811Z,6.6
2019-03-28T04:48:08.674Z,6.6
2019-03-28T04:48:59.546Z,6.6
2019-03-28T04:49:50.411Z,6.6
2019-03-28T04:50:41.275Z,6.6
2019-03-28T04:51:32.162Z,6.6
2019-03-28T04:52:23.027Z,6.6
2019-03-28T04:53:13.889Z,6.6
2019-03-28T04:54:04.772Z,6.6
2019-03-28T04:54:55.636Z,6.6
2019-03-28T04:55:47.240Z,6.6
2019-03-28T04:56:38.311Z,6.6
2019-03-28T04:57:29.616Z,6.6
2019-03-28T04:58:21.804Z,6.6
2019-03-28T04:59:12.843Z,6.6
2019-03-28T05:00:03.706Z,6.6
2019-03-28T05:00:54.572Z,6.6
2019-03-28T05:01:58.728Z,6.6
2019-03-28T05:02:41.270Z,6.6
2019-03-28T05:03:32.138Z,6.6
2019-03-28T05:04:23.013Z,6.6
2019-03-28T05:05:13.886Z,6.6
2019-03-28T05:06:04.770Z,6.6
2019-03-28T05:06:55.673Z,6.7
2019-03-28T05:07:46.575Z,6.7
2019-03-28T05:08:37.444Z,6.7
2019-03-28T05:09:28.307Z,6.7
2019-03-28T05:10:19.176Z,6.7
2019-03-28T05:11:10.038Z,6.7
2019-03-28T05:12:00.936Z,6.7
2019-03-28T05:12:51.798Z,6.7
2019-03-28T05:13:42.662Z,6.7
2019-03-28T05:14:33.528Z,6.7
2019-03-28T05:15:24.388Z,6.7
2019-03-28T05:16:15.251Z,6.7
2019-03-28T05:17:06.155Z,6.7
2019-03-28T05:17:57.031Z,6.7
2019-03-28T05:18:47.897Z,6.7
2019-03-28T05:19:38.772Z,6.7
2019-03-28T05:20:29.637Z,6.7
2019-03-28T05:21:20.505Z,6.7
2019-03-28T05:22:11.436Z,6.7
2019-03-28T05:23:02.297Z,6.7
2019-03-28T05:23:53.164Z,6.8
2019-03-28T05:24:44.023Z,6.8
2019-03-28T05:25:34.890Z,6.8
2019-03-28T05:26:25.758Z,6.8
2019-03-28T05:27:16.825Z,6.9
2019-03-28T05:28:07.701Z,6.9
2019-03-28T05:28:59.394Z,6.9
2019-03-28T05:29:50.331Z,6.9
2019-03-28T05:30:41.196Z,6.9
2019-03-28T05:31:32.070Z,6.9
2019-03-28T05:32:22.987Z,6.9
2019-03-28T05:33:13.853Z,6.9
2019-03-28T05:34:04.720Z,6.9
2019-03-28T05:34:55.583Z,6.9
2019-03-28T05:35:46.446Z,6.9
2019-03-28T05:36:37.309Z,6.9
2019-03-28T05:37:28.180Z,6.9
2019-03-28T05:38:19.067Z,6.9
2019-03-28T05:39:09.932Z,7
2019-03-28T05:40:00.796Z,7
2019-03-28T05:40:51.666Z,7
2019-03-28T05:41:42.528Z,7
2019-03-28T05:42:33.393Z,7.1
2019-03-28T05:43:24.286Z,7.1
2019-03-28T05:44:15.401Z,7.1
2019-03-28T05:45:06.284Z,7.1
2019-03-28T05:45:57.159Z,7.1
2019-03-28T05:46:48.034Z,7.2
2019-03-28T05:47:38.937Z,7.2
2019-03-28T05:48:29.848Z,7.2
2019-03-28T05:49:20.714Z,7.2
2019-03-28T05:50:11.577Z,7.3
2019-03-28T05:51:02.455Z,7.2
2019-03-28T05:51:53.318Z,7.2
2019-03-28T05:52:44.224Z,7.3
2019-03-28T05:53:35.093Z,7.3
2019-03-28T05:54:25.957Z,7.3
2019-03-28T05:55:16.827Z,7.3
2019-03-28T05:56:07.691Z,7.3
2019-03-28T05:56:58.554Z,7.3
2019-03-28T05:57:49.456Z,7.3
2019-03-28T05:58:40.326Z,7.3
2019-03-28T05:59:31.191Z,7.3
2019-03-28T06:00:22.070Z,7.3
2019-03-28T06:01:12.936Z,7.3
2019-03-28T06:02:03.804Z,7.2
2019-03-28T06:02:54.730Z,7.3
2019-03-28T06:03:45.594Z,7.3
2019-03-28T06:04:36.457Z,7.3
2019-03-28T06:05:27.323Z,7.3
2019-03-28T06:06:18.427Z,7.3
2019-03-28T06:07:10.280Z,7.3
2019-03-28T06:08:01.295Z,7.3
2019-03-28T06:08:52.164Z,7.3
2019-03-28T06:09:43.029Z,7.3
2019-03-28T06:10:33.895Z,7.3
2019-03-28T06:11:24.763Z,7.3
2019-03-28T06:12:18.720Z,7.3
2019-03-28T06:13:09.970Z,7.3
2019-03-28T06:14:00.835Z,7.3
2019-03-28T06:14:51.709Z,7.3
2019-03-28T06:15:42.574Z,7.3
2019-03-28T06:16:33.437Z,7.3
2019-03-28T06:17:24.304Z,7.3
2019-03-28T06:18:15.228Z,7.3
2019-03-28T06:19:06.096Z,7.3
2019-03-28T06:19:57.061Z,7.3
2019-03-28T06:20:47.932Z,7.3
2019-03-28T06:21:39.664Z,7.3
2019-03-28T06:22:30.682Z,7.3
2019-03-28T06:23:21.757Z,7.3
2019-03-28T06:24:12.621Z,7.3
2019-03-28T06:25:05.696Z,7.3
2019-03-28T06:25:56.943Z,7.3
2019-03-28T06:26:49.930Z,7.3
2019-03-28T06:27:40.959Z,7.3
2019-03-28T06:28:31.867Z,7.3
2019-03-28T06:29:23.922Z,7.3
2019-03-28T06:30:15.186Z,7.3
2019-03-28T06:31:06.054Z,7.3
2019-03-28T06:31:56.938Z,7.3
2019-03-28T06:32:47.804Z,7.3
2019-03-28T06:33:38.699Z,7.3
2019-03-28T06:34:29.568Z,7.3
2019-03-28T06:35:21.892Z,7.3
2019-03-28T06:36:12.871Z,7.3
2019-03-28T06:37:03.745Z,7.3
2019-03-28T06:37:54.615Z,7.3
2019-03-28T06:38:45.510Z,7.3
2019-03-28T06:39:36.683Z,7.3
2019-03-28T06:40:27.576Z,7.3
2019-03-28T06:41:18.441Z,7.3
2019-03-28T06:42:09.304Z,7.3
2019-03-28T06:43:00.168Z,7.3
2019-03-28T06:43:51.085Z,7.3
2019-03-28T06:44:41.964Z,7.3
2019-03-28T06:45:32.834Z,7.3
2019-03-28T06:46:23.706Z,7.3
2019-03-28T06:47:14.569Z,7.3
2019-03-28T06:48:05.442Z,7.3
2019-03-28T06:48:56.379Z,7.3
2019-03-28T06:49:47.288Z,7.3
2019-03-28T06:50:38.157Z,7.3
2019-03-28T06:51:29.031Z,7.3
2019-03-28T06:52:19.906Z,7.3
2019-03-28T06:53:10.773Z,7.3
2019-03-28T06:54:01.641Z,7.3
2019-03-28T06:54:52.536Z,7.3
2019-03-28T06:55:43.403Z,7.3
2019-03-28T06:56:34.270Z,7.3
2019-03-28T06:57:25.133Z,7.3
2019-03-28T06:58:15.995Z,7.3
2019-03-28T06:59:06.865Z,7.3
2019-03-28T06:59:57.770Z,7.3
2019-03-28T07:00:48.647Z,7.3
2019-03-28T07:01:39.523Z,7.3
2019-03-28T07:02:30.390Z,7.4
2019-03-28T07:03:21.254Z,7.3
2019-03-28T07:04:12.118Z,7.4
2019-03-28T07:05:03.019Z,7.4
2019-03-28T07:05:53.896Z,7.4
2019-03-28T07:06:44.770Z,7.4
2019-03-28T07:07:35.634Z,7.4
2019-03-28T07:08:26.502Z,7.4
2019-03-28T07:09:18.279Z,7.4
2019-03-28T07:10:09.268Z,7.4
2019-03-28T07:11:00.143Z,7.4
2019-03-28T07:11:51.006Z,7.4
2019-03-28T07:12:41.953Z,7.4
2019-03-28T07:13:32.824Z,7.4
2019-03-28T07:14:23.687Z,7.4
2019-03-28T07:15:14.594Z,7.4
2019-03-28T07:16:05.459Z,7.4
2019-03-28T07:16:56.337Z,7.4
2019-03-28T07:17:47.210Z,7.4
2019-03-28T07:18:38.080Z,7.4
2019-03-28T07:19:28.944Z,7.4
2019-03-28T07:20:19.843Z,7.4
2019-03-28T07:21:10.705Z,7.4
2019-03-28T07:22:01.574Z,7.4
2019-03-28T07:22:52.445Z,7.4
2019-03-28T07:23:43.319Z,7.4
2019-03-28T07:24:34.185Z,7.4
2019-03-28T07:25:25.614Z,7.4
2019-03-28T07:26:16.629Z,7.4
2019-03-28T07:27:07.524Z,7.4
2019-03-28T07:27:58.391Z,7.4
2019-03-28T07:28:49.252Z,7.4
2019-03-28T07:29:50.044Z,7.4
2019-03-28T07:30:35.950Z,7.4
2019-03-28T07:31:26.816Z,7.4
2019-03-28T07:32:17.686Z,7.4
2019-03-28T07:33:08.552Z,7.4
2019-03-28T07:33:59.419Z,7.4
2019-03-28T07:34:50.284Z,7.4
2019-03-28T07:35:41.223Z,7.4
2019-03-28T07:36:32.091Z,7.4
2019-03-28T07:37:22.959Z,7.4
2019-03-28T07:38:13.825Z,7.4
2019-03-28T07:39:04.701Z,7.4
2019-03-28T07:39:55.578Z,7.4
2019-03-28T07:40:46.471Z,7.4
2019-03-28T07:41:37.338Z,7.4
2019-03-28T07:42:28.208Z,7.4
2019-03-28T07:43:19.072Z,7.4
2019-03-28T07:45:00.707Z,7.4
2019-03-28T07:45:51.615Z,7.5
2019-03-28T07:46:42.482Z,7.4
2019-03-28T07:47:33.347Z,7.4
2019-03-28T07:48:24.214Z,7.5
2019-03-28T07:49:15.088Z,7.5
2019-03-28T07:50:05.968Z,7.5
2019-03-28T07:50:56.867Z,7.5
2019-03-28T07:51:47.740Z,7.5
2019-03-28T07:52:38.608Z,7.5
2019-03-28T07:53:29.478Z,7.5
2019-03-28T07:54:20.346Z,7.5
2019-03-28T07:55:11.382Z,7.5
2019-03-28T07:56:06.176Z,7.5
2019-03-28T07:56:57.045Z,7.5
2019-03-28T07:57:47.912Z,7.5
2019-03-28T07:58:38.786Z,7.5
2019-03-28T07:59:29.651Z,7.5
2019-03-28T08:00:20.524Z,7.5
2019-03-28T08:01:11.439Z,7.6
2019-03-28T08:02:02.313Z,7.6
2019-03-28T08:02:53.185Z,7.6
2019-03-28T08:03:44.054Z,7.6
2019-03-28T08:04:34.922Z,7.6
2019-03-28T08:05:25.794Z,7.6
2019-03-28T08:06:16.690Z,7.6
2019-03-28T08:07:07.572Z,7.6
2019-03-28T08:07:58.526Z,7.6
2019-03-28T08:08:49.471Z,7.6
2019-03-28T08:09:40.458Z,7.6
2019-03-28T08:10:31.410Z,7.6
2019-03-28T08:11:22.385Z,7.6
2019-03-28T08:12:22.184Z,7.6
2019-03-28T08:13:09.206Z,7.6
2019-03-28T08:14:00.075Z,7.6
2019-03-28T08:14:51.020Z,7.6
2019-03-28T08:15:41.920Z,7.6
2019-03-28T08:16:32.868Z,7.6
2019-03-28T08:17:23.769Z,7.6
2019-03-28T08:18:14.714Z,7.6
2019-03-28T08:19:07.930Z,7.6
2019-03-28T08:19:59.055Z,7.6
2019-03-28T08:20:49.948Z,7.6
2019-03-28T08:21:40.846Z,7.6
2019-03-28T08:22:31.713Z,7.6
2019-03-28T08:23:27.672Z,7.6
2019-03-28T08:24:18.571Z,7.6
2019-03-28T08:25:11.601Z,7.6
2019-03-28T08:26:02.867Z,7.6
2019-03-28T08:26:53.794Z,7.6
2019-03-28T08:27:44.692Z,7.6
2019-03-28T08:28:35.577Z,7.6
2019-03-28T08:29:26.508Z,7.6
2019-03-28T08:30:19.370Z,7.6
2019-03-28T08:31:10.554Z,7.6
2019-03-28T08:32:01.460Z,7.6
2019-03-28T08:32:52.330Z,7.6
2019-03-28T08:33:43.257Z,7.7
2019-03-28T08:34:34.235Z,7.6
2019-03-28T08:35:25.129Z,7.7
2019-03-28T08:36:16.022Z,7.7
2019-03-28T08:37:06.941Z,7.7
2019-03-28T08:37:57.806Z,7.7
2019-03-28T08:38:48.672Z,7.7
2019-03-28T08:39:39.539Z,7.7
2019-03-28T08:40:30.455Z,7.7
2019-03-28T08:41:21.426Z,7.7
2019-03-28T08:42:12.426Z,7.7
2019-03-28T08:43:03.368Z,7.7
2019-03-28T08:43:54.286Z,7.7
2019-03-28T08:44:45.175Z,7.7
2019-03-28T08:45:36.110Z,7.7
2019-03-28T08:46:27.047Z,7.7
2019-03-28T08:47:17.988Z,7.7
2019-03-28T08:48:08.942Z,7.7
2019-03-28T08:48:59.830Z,7.7
2019-03-28T08:49:50.721Z,7.7
2019-03-28T08:50:41.593Z,7.7
2019-03-28T08:51:32.470Z,7.7
2019-03-28T08:52:23.365Z,7.7
2019-03-28T08:53:14.278Z,7.7
2019-03-28T08:54:05.159Z,7.7
2019-03-28T08:54:57.039Z,7.7
2019-03-28T08:55:47.915Z,7.7
2019-03-28T08:56:38.786Z,7.7
2019-03-28T08:57:29.679Z,7.7
2019-03-28T08:58:20.567Z,7.7
2019-03-28T08:59:11.515Z,7.7
2019-03-28T09:00:02.411Z,7.7
2019-03-28T09:00:53.369Z,7.7
2019-03-28T09:01:44.325Z,7.7
2019-03-28T09:02:35.313Z,7.7
2019-03-28T09:03:26.247Z,7.7
2019-03-28T09:04:17.222Z,7.7
2019-03-28T09:05:08.206Z,7.7
2019-03-28T09:05:59.248Z,7.7
2019-03-28T09:06:50.155Z,7.7
2019-03-28T09:07:41.132Z,7.7
2019-03-28T09:08:32.051Z,7.7
2019-03-28T09:09:22.932Z,7.7
2019-03-28T09:10:13.916Z,7.7
2019-03-28T09:11:04.843Z,7.7
2019-03-28T09:11:55.756Z,7.7
2019-03-28T09:12:46.661Z,7.8
2019-03-28T09:13:37.537Z,7.8
2019-03-28T09:14:31.754Z,7.8
2019-03-28T09:15:23.119Z,7.8
2019-03-28T09:16:14.078Z,7.8
2019-03-28T09:17:05.062Z,7.8
2019-03-28T09:17:56.165Z,7.8
2019-03-28T09:18:47.173Z,7.8
2019-03-28T09:19:39.048Z,7.8
2019-03-28T09:20:30.215Z,7.8
2019-03-28T09:21:21.206Z,7.8
2019-03-28T09:22:12.218Z,7.8
2019-03-28T09:23:03.276Z,7.9
2019-03-28T09:23:54.268Z,7.9
2019-03-28T09:24:45.242Z,7.9
2019-03-28T09:25:37.169Z,7.9
2019-03-28T09:26:28.149Z,7.9
2019-03-28T09:27:19.090Z,7.9
2019-03-28T09:28:10.096Z,7.9
2019-03-28T09:29:01.029Z,7.9
2019-03-28T09:29:51.963Z,7.9
2019-03-28T09:30:48.382Z,7.9
2019-03-28T09:31:38.671Z,7.9
2019-03-28T09:32:29.542Z,7.9
2019-03-28T09:33:20.543Z,7.9
2019-03-28T09:34:11.469Z,7.9
2019-03-28T09:35:02.337Z,7.9
2019-03-28T09:35:53.217Z,7.9
2019-03-28T09:36:44.122Z,7.9
2019-03-28T09:37:35.045Z,7.9
2019-03-28T09:38:25.915Z,7.9
2019-03-28T09:39:16.789Z,7.9
2019-03-28T09:40:07.661Z,7.9
2019-03-28T09:40:58.533Z,7.9
2019-03-28T09:41:49.409Z,7.9
2019-03-28T09:42:40.303Z,7.9
2019-03-28T09:43:31.175Z,7.9
2019-03-28T09:44:22.052Z,7.9
2019-03-28T09:45:12.925Z,8
2019-03-28T09:46:03.798Z,8
2019-03-28T09:46:54.677Z,8
2019-03-28T09:47:45.575Z,8
2019-03-28T09:48:36.448Z,8
2019-03-28T09:49:27.318Z,8
2019-03-28T09:50:18.186Z,8
2019-03-28T09:51:09.055Z,8
2019-03-28T09:51:59.921Z,8
2019-03-28T09:52:50.842Z,8
2019-03-28T09:53:41.717Z,8
2019-03-28T09:54:32.584Z,8
2019-03-28T09:55:23.455Z,8
2019-03-28T09:56:14.326Z,8
2019-03-28T09:57:05.194Z,8
2019-03-28T09:57:56.095Z,8.1
2019-03-28T09:58:46.961Z,8.1
2019-03-28T09:59:37.828Z,8.1
2019-03-28T10:00:28.695Z,8.1
2019-03-28T10:01:19.566Z,8.1
2019-03-28T10:02:10.440Z,8.1
2019-03-28T10:03:01.334Z,8.1
2019-03-28T10:03:52.205Z,8.1
2019-03-28T10:04:43.076Z,8.1
2019-03-28T10:05:33.968Z,8.1
2019-03-28T10:06:24.842Z,8.1
2019-03-28T10:07:15.726Z,8.1
2019-03-28T10:08:06.621Z,8.1
2019-03-28T10:08:57.488Z,8.1
2019-03-28T10:09:48.379Z,8.1
2019-03-28T10:10:39.248Z,8.1
2019-03-28T10:11:30.114Z,8.1
2019-03-28T10:12:20.990Z,8.1
2019-03-28T10:13:11.889Z,8.1
2019-03-28T10:14:02.753Z,8.1
2019-03-28T10:14:53.622Z,8.1
2019-03-28T10:15:44.491Z,8.1
2019-03-28T10:16:35.658Z,8.1
2019-03-28T10:17:26.895Z,8.1
2019-03-28T10:18:18.289Z,8.1
2019-03-28T10:19:09.157Z,8.1
2019-03-28T10:20:00.032Z,8.2
2019-03-28T10:20:50.902Z,8.2
2019-03-28T10:21:41.766Z,8.2
2019-03-28T10:22:32.639Z,8.2
2019-03-28T10:23:23.577Z,8.2
2019-03-28T10:24:14.445Z,8.2
2019-03-28T10:25:05.323Z,8.3
2019-03-28T10:25:56.190Z,8.3
2019-03-28T10:26:47.061Z,8.3
2019-03-28T10:27:37.928Z,8.3
2019-03-28T10:28:28.819Z,8.3
2019-03-28T10:29:19.690Z,8.3
2019-03-28T10:30:10.555Z,8.3
2019-03-28T10:31:01.423Z,8.3
2019-03-28T10:31:52.297Z,8.3
2019-03-28T10:32:43.168Z,8.3
2019-03-28T10:33:34.065Z,8.3
2019-03-28T10:34:24.934Z,8.3
2019-03-28T10:35:15.801Z,8.3
2019-03-28T10:36:06.670Z,8.3
2019-03-28T10:36:57.543Z,8.3
2019-03-28T10:37:48.409Z,8.3
2019-03-28T10:38:39.309Z,8.3
2019-03-28T10:39:30.176Z,8.3
2019-03-28T10:40:21.049Z,8.3
2019-03-28T10:41:11.933Z,8.3
2019-03-28T10:42:02.806Z,8.3
2019-03-28T10:42:53.674Z,8.3
2019-03-28T10:43:44.565Z,8.3
2019-03-28T10:44:35.433Z,8.3
2019-03-28T10:45:26.315Z,8.3
2019-03-28T10:46:17.187Z,8.3
2019-03-28T10:47:08.065Z,8.3
2019-03-28T10:47:58.939Z,8.3
2019-03-28T10:48:49.836Z,8.4
2019-03-28T10:49:41.430Z,8.4
2019-03-28T10:50:40.583Z,8.4
2019-03-28T10:51:28.209Z,8.4
2019-03-28T10:52:19.090Z,8.4
2019-03-28T10:53:09.974Z,8.4
2019-03-28T10:54:00.874Z,8.4
2019-03-28T10:54:51.749Z,8.4
2019-03-28T10:55:42.810Z,8.4
2019-03-28T10:56:33.697Z,8.4
2019-03-28T10:57:29.669Z,8.5
2019-03-28T10:58:20.408Z,8.4
2019-03-28T10:59:22.599Z,8.5
2019-03-28T11:00:07.083Z,8.5
2019-03-28T11:00:57.947Z,8.5
2019-03-28T11:01:50.642Z,8.5
2019-03-28T11:02:41.740Z,8.5
2019-03-28T11:03:32.637Z,8.5
2019-03-28T11:04:23.507Z,8.4
2019-03-28T11:05:14.552Z,8.4
2019-03-28T11:06:06.513Z,8.4
2019-03-28T11:06:58.482Z,8.4
2019-03-28T11:07:50.485Z,8.4
2019-03-28T11:08:42.640Z,8.4
2019-03-28T11:09:34.529Z,8.4
2019-03-28T11:10:26.599Z,8.4
2019-03-28T11:11:17.555Z,8.4
2019-03-28T11:12:08.425Z,8.4
2019-03-28T11:12:59.295Z,8.4
2019-03-28T11:13:50.194Z,8.4
2019-03-28T11:14:41.068Z,8.4
2019-03-28T11:15:31.950Z,8.4
2019-03-28T11:16:22.819Z,8.4
2019-03-28T11:17:13.689Z,8.4
2019-03-28T11:18:04.567Z,8.4
2019-03-28T11:18:55.468Z,8.4
2019-03-28T11:19:46.354Z,8.5
2019-03-28T11:20:39.766Z,8.5
2019-03-28T11:21:34.162Z,8.5
2019-03-28T11:22:25.158Z,8.5
2019-03-28T11:23:16.023Z,8.6
2019-03-28T11:24:06.922Z,8.6
2019-03-28T11:24:57.791Z,8.6
2019-03-28T11:25:48.666Z,8.6
2019-03-28T11:26:39.545Z,8.6
2019-03-28T11:27:30.413Z,8.6
2019-03-28T11:28:23.403Z,8.6
2019-03-28T11:29:14.386Z,8.6
2019-03-28T11:30:05.280Z,8.6
2019-03-28T11:30:56.154Z,8.6
2019-03-28T11:31:50.803Z,8.6
2019-03-28T11:32:42.834Z,8.6
2019-03-28T11:33:33.704Z,8.6
2019-03-28T11:34:24.600Z,8.6
2019-03-28T11:35:15.463Z,8.6
2019-03-28T11:36:06.392Z,8.6
2019-03-28T11:36:57.264Z,8.6
2019-03-28T11:37:48.134Z,8.6
2019-03-28T11:38:39.001Z,8.6
2019-03-28T11:39:29.893Z,8.6
2019-03-28T11:40:20.759Z,8.6
2019-03-28T11:41:11.631Z,8.6
2019-03-28T11:42:02.538Z,8.6
2019-03-28T11:42:53.906Z,8.6
2019-03-28T11:43:45.507Z,8.6
2019-03-28T11:44:36.475Z,8.6